Asuncion Guarany, Paraguay

2:42 AM PYT on July 08, 2015 (GMT -0400)
Guarani International | | Change Station
CLOSE
Current Station
Airport
Location: Ciudad del Este,
Elevation: 2785 ft
Nearby Weather Stations

Elev 2785 ft 25.46 °S, 54.84 °W | Updated 42 minutes ago

Heavy Fog
Heavy Fog
63 °F
Feels Like 63 °F
N
0
Wind Variable Wind from North

Today
High -- | Low -- °F
--% Chance of Precip.
Yesterday
High -- | Low -- °F
Precip. -- in
6:25 AM 5:03 PM
Waning Gibbous, 57% visible
Pressure 29.92 in
Visibility 0.2 miles
Clouds
Dew Point 63 °F
Humidity 100%
Rainfall 0.00 in
Snow Depth Not available.
UV Not available.
Pollen Not available.
Air Quality Not available.
Flu Activity Not available.
METAR SGES 080600Z 00000KT 0400 +FG VV/// 17/17 Q1013

More Conditions Fewer Conditions

Pressure 29.92 in
Visibility 0.2 miles
Clouds
Dew Point 63 °F
Humidity 100%
Rainfall 0.00 in
Snow Depth Not available.
UV Not available.
Pollen Not available.
Air Quality Not available.
Flu Activity Not available.
METAR SGES 080600Z 00000KT 0400 +FG VV/// 17/17 Q1013

More Conditions Fewer Conditions

10-Day Weather Forecast

×

Almanac

Astronomy

Jul. 08, 2015 Rise Set
Actual Time
Civil Twilight
Nautical Twilight
Astronomical Twilight
Moon
Length of Visible Light
Length of Day
Tomorrow will be .
, % of the Moon is Illuminated

Today's Extremes

Country Highs Country Lows

Community

WunderPhotos

Upload Photos

1,836,064 photos uploaded!

WunderBlogs® & News

Nearby

Air Quality

  Air Quality AQ Index Pollutant
Not available.

Snow Depth

Station Depth Elevation

Earthquake Activity

City Distance Mag. Time & Date
Minimum magnitude displayed is 2.5.

Coastal Water Temperatures

Place Temperature

Stations

Nearby Weather Stations

Station Location Temp. Windchill Dew Point Humidity Wind Precip. Elev Updated Type